Time;durP1;ratioP1;P1;durP2;ratioP2;P2;SDS_P1;SDS_P2;PMS_P1;PMS_P2;Temp;Humidity;BMP_temperature;BMP_pressure;BME280_temperature;BME280_humidity;BME280_pressure;Samples;Min_cycle;Max_cycle;Signal;HPM_P1;HPM_P2
2022/11/27 00:01:38;;;;;;;11.60;2.78;;;6.40;99.90;;;;;;5068181;28;20477;-37
2022/11/27 00:04:05;;;;;;;12.60;2.75;;;6.40;99.90;;;;;;5064509;28;20040;-37
2022/11/27 00:06:32;;;;;;;9.38;2.65;;;6.50;99.90;;;;;;5069534;28;20045;-38
2022/11/27 00:08:59;;;;;;;10.77;3.75;;;6.40;99.90;;;;;;5068695;28;20033;-37
2022/11/27 00:11:27;;;;;;;8.82;2.47;;;6.40;99.90;;;;;;5062285;28;20041;-39
2022/11/27 00:13:52;;;;;;;11.57;3.75;;;6.40;99.90;;;;;;5074599;28;20044;-37
2022/11/27 00:16:20;;;;;;;17.90;2.92;;;6.30;99.90;;;;;;5066431;28;20048;-37
2022/11/27 00:18:46;;;;;;;12.32;3.80;;;6.40;99.90;;;;;;5067639;28;20072;-37
2022/11/27 00:21:21;;;;;;;8.88;3.25;;;6.30;99.90;;;;;;5068867;28;20441;-41
2022/11/27 00:23:47;;;;;;;7.97;2.55;;;6.30;99.90;;;;;;5069199;28;20040;-37
2022/11/27 00:26:13;;;;;;;8.52;3.08;;;6.30;99.90;;;;;;5063516;28;20648;-37
2022/11/27 00:28:39;;;;;;;13.07;2.97;;;6.20;99.90;;;;;;5073897;28;20078;-37
2022/11/27 00:31:14;;;;;;;9.25;3.03;;;6.20;99.90;;;;;;5059434;28;20040;-37
2022/11/27 00:33:40;;;;;;;8.73;3.20;;;6.20;99.90;;;;;;5062584;28;20061;-37
2022/11/27 00:36:06;;;;;;;12.07;3.20;;;6.20;99.90;;;;;;5066251;28;20118;-38
2022/11/27 00:38:33;;;;;;;11.02;2.90;;;6.10;99.90;;;;;;5068706;28;20539;-37
2022/11/27 00:41:08;;;;;;;9.98;3.15;;;6.20;99.90;;;;;;5066758;28;20040;-37
2022/11/27 00:43:36;;;;;;;14.40;3.28;;;6.10;99.90;;;;;;5063113;28;20550;-37
2022/11/27 00:46:02;;;;;;;15.00;3.35;;;6.10;99.90;;;;;;5069820;28;20044;-37
2022/11/27 00:48:28;;;;;;;10.23;3.72;;;6.10;99.90;;;;;;5058516;28;20390;-37
2022/11/27 00:51:05;;;;;;;9.80;2.85;;;6.10;99.90;;;;;;5062566;28;20068;-37
2022/11/27 00:53:31;;;;;;;9.80;3.00;;;6.00;99.90;;;;;;5074605;28;20040;-39
2022/11/27 00:55:57;;;;;;;9.77;3.53;;;6.00;99.90;;;;;;5058055;28;20035;-37
2022/11/27 00:58:24;;;;;;;11.80;3.33;;;5.90;99.90;;;;;;5060438;28;20041;-37
2022/11/27 01:00:55;;;;;;;5.35;2.83;;;5.90;99.90;;;;;;5064208;28;20798;-38
2022/11/27 01:03:21;;;;;;;6.80;2.55;;;6.00;99.90;;;;;;5069613;28;20123;-37
2022/11/27 01:05:47;;;;;;;12.38;3.38;;;5.90;99.90;;;;;;5066256;28;20401;-37
2022/11/27 01:08:12;;;;;;;10.52;3.20;;;5.90;99.90;;;;;;5065053;28;20035;-38
2022/11/27 01:10:38;;;;;;;8.23;2.92;;;5.90;99.90;;;;;;5062392;28;20114;-36
2022/11/27 01:13:04;;;;;;;8.68;3.10;;;5.90;99.90;;;;;;5062947;28;20040;-37
2022/11/27 01:15:29;;;;;;;8.88;2.97;;;5.90;99.90;;;;;;5069529;28;20075;-37
2022/11/27 01:17:55;;;;;;;11.27;3.92;;;5.90;99.90;;;;;;5062912;28;20062;-38
2022/11/27 01:20:20;;;;;;;10.00;3.40;;;5.90;99.90;;;;;;5054243;28;20504;-37
2022/11/27 01:22:46;;;;;;;10.77;3.80;;;5.80;99.90;;;;;;5062653;28;20371;-37
2022/11/27 01:25:12;;;;;;;10.20;3.22;;;5.80;99.90;;;;;;5066941;28;20041;-37
2022/11/27 01:27:37;;;;;;;7.60;2.40;;;5.80;99.90;;;;;;5064808;28;20111;-37
2022/11/27 01:30:03;;;;;;;7.68;2.55;;;5.70;99.90;;;;;;5068107;28;20212;-37
2022/11/27 01:32:29;;;;;;;11.90;4.50;;;5.70;99.90;;;;;;5069506;28;20064;-36
2022/11/27 01:34:55;;;;;;;8.13;2.90;;;5.70;99.90;;;;;;5062048;28;20722;-37
2022/11/27 01:37:20;;;;;;;9.77;3.40;;;5.70;99.90;;;;;;5062767;28;20072;-37
2022/11/27 01:39:46;;;;;;;9.52;3.08;;;5.70;99.90;;;;;;5064162;28;20069;-38
2022/11/27 01:42:11;;;;;;;9.35;2.95;;;5.60;99.90;;;;;;5059521;28;20043;-37
2022/11/27 01:44:37;;;;;;;8.25;2.67;;;5.60;99.90;;;;;;5062613;28;20514;-37
2022/11/27 01:47:06;;;;;;;12.63;3.20;;;5.60;99.90;;;;;;5065742;28;20383;-36
2022/11/27 01:49:41;;;;;;;6.88;2.70;;;5.60;99.90;;;;;;5068197;28;20076;-37
2022/11/27 01:52:08;;;;;;;7.40;2.47;;;5.60;99.90;;;;;;5064300;28;20048;-37
2022/11/27 01:54:57;;;;;;;8.00;3.03;;;5.50;99.90;;;;;;5060168;28;20509;-37
2022/11/27 01:57:51;;;;;;;7.80;3.00;;;5.50;99.90;;;;;;5053165;28;20133;-39
2022/11/27 02:00:18;;;;;;;11.20;2.55;;;5.60;99.90;;;;;;5059415;28;20124;-37
2022/11/27 02:02:44;;;;;;;11.20;3.47;;;5.60;99.90;;;;;;5068383;28;20040;-37
2022/11/27 02:05:14;;;;;;;11.10;3.28;;;5.60;99.90;;;;;;5066484;28;20041;-37
2022/11/27 02:07:40;;;;;;;9.70;3.15;;;5.60;99.90;;;;;;5062648;28;20055;-39
2022/11/27 02:10:06;;;;;;;7.10;2.92;;;5.60;99.90;;;;;;5059411;28;20036;-37
2022/11/27 02:12:42;;;;;;;10.23;3.40;;;5.60;99.90;;;;;;5063564;28;20397;-37
2022/11/27 02:15:27;;;;;;;9.80;3.28;;;5.60;99.90;;;;;;5063556;28;20040;-37
2022/11/27 02:18:11;;;;;;;9.00;3.47;;;5.60;99.90;;;;;;5056053;28;20521;-36
2022/11/27 02:21:04;;;;;;;7.47;2.80;;;5.50;99.90;;;;;;5067683;28;20481;-37
2022/11/27 02:23:55;;;;;;;11.40;3.28;;;5.50;99.90;;;;;;5064914;28;20045;-37
2022/11/27 02:26:46;;;;;;;12.02;4.10;;;5.50;99.90;;;;;;5061000;28;20493;-37
2022/11/27 02:29:13;;;;;;;10.07;3.67;;;5.50;99.90;;;;;;5059741;28;20471;-37
2022/11/27 02:31:50;;;;;;;12.15;3.80;;;5.50;99.90;;;;;;5067374;28;20449;-37
2022/11/27 02:34:45;;;;;;;12.52;4.07;;;5.50;99.90;;;;;;5068683;28;20052;-40
2022/11/27 02:37:32;;;;;;;13.23;3.90;;;5.50;99.90;;;;;;5067416;28;20055;-36
2022/11/27 02:40:20;;;;;;;8.48;3.30;;;5.50;99.90;;;;;;5065252;28;20047;-37
2022/11/27 02:42:54;;;;;;;11.52;4.10;;;5.40;99.90;;;;;;5059684;28;20044;-36
2022/11/27 02:45:47;;;;;;;10.20;3.70;;;5.40;99.90;;;;;;5070182;28;20048;-37
2022/11/27 02:48:17;;;;;;;11.10;4.30;;;5.40;99.90;;;;;;5054601;28;20410;-36
2022/11/27 02:50:45;;;;;;;13.20;3.88;;;5.40;99.90;;;;;;5068246;28;20076;-37
2022/11/27 02:53:16;;;;;;;10.25;3.60;;;5.40;99.90;;;;;;5069175;28;20051;-39
2022/11/27 02:55:44;;;;;;;12.73;4.32;;;5.40;99.90;;;;;;5067815;28;20444;-37
2022/11/27 02:58:14;;;;;;;11.05;3.78;;;5.40;99.90;;;;;;5069140;28;20501;-36
2022/11/27 03:00:42;;;;;;;9.95;3.33;;;5.40;99.90;;;;;;5068348;28;20449;-38
2022/11/27 03:03:11;;;;;;;10.15;3.70;;;5.40;99.90;;;;;;5069505;28;20088;-37
2022/11/27 03:05:41;;;;;;;9.52;3.85;;;5.40;99.90;;;;;;5070727;28;20052;-37
2022/11/27 03:08:16;;;;;;;11.82;4.18;;;5.40;99.90;;;;;;5069703;28;20071;-37
2022/11/27 03:10:54;;;;;;;10.80;3.53;;;5.40;99.90;;;;;;5061925;28;20425;-37
2022/11/27 03:13:19;;;;;;;10.70;4.03;;;5.40;99.90;;;;;;5069583;28;20044;-37
2022/11/27 03:16:04;;;;;;;10.80;3.15;;;5.40;99.90;;;;;;5063163;28;20040;-37
2022/11/27 03:18:38;;;;;;;13.40;4.43;;;5.40;99.90;;;;;;5069933;28;20071;-36
2022/11/27 03:21:17;;;;;;;10.63;3.40;;;5.40;99.90;;;;;;5064849;28;20044;-36
2022/11/27 03:23:43;;;;;;;11.13;3.17;;;5.50;99.90;;;;;;5065106;28;20091;-36
2022/11/27 03:26:09;;;;;;;12.10;4.20;;;5.50;99.90;;;;;;5060104;28;20524;-37
2022/11/27 03:28:35;;;;;;;10.52;3.63;;;5.50;99.90;;;;;;5066412;28;20044;-38
2022/11/27 03:31:01;;;;;;;11.80;3.75;;;5.60;99.90;;;;;;5071283;28;20115;-37
2022/11/27 03:33:27;;;;;;;10.45;3.70;;;5.60;99.90;;;;;;5068620;28;20048;-36
2022/11/27 03:35:53;;;;;;;9.68;3.38;;;5.60;99.90;;;;;;5071290;28;20044;-37
2022/11/27 03:38:19;;;;;;;10.35;3.13;;;5.60;99.90;;;;;;5067893;28;20048;-36
2022/11/27 03:41:00;;;;;;;13.90;3.10;;;5.60;99.90;;;;;;5065085;28;20082;-37
2022/11/27 03:43:34;;;;;;;9.27;3.65;;;5.60;99.90;;;;;;5066205;28;20043;-37
2022/11/27 03:46:08;;;;;;;11.75;3.03;;;5.70;99.90;;;;;;5069358;28;20386;-36
2022/11/27 03:48:54;;;;;;;11.15;3.03;;;5.70;99.90;;;;;;5068382;28;20068;-37
2022/11/27 03:51:33;;;;;;;8.65;3.35;;;5.70;99.90;;;;;;5065988;28;20091;-37
2022/11/27 03:54:06;;;;;;;9.07;3.05;;;5.70;99.90;;;;;;5069661;28;20043;-39
2022/11/27 03:57:00;;;;;;;9.25;3.08;;;5.70;99.90;;;;;;5064069;28;20048;-38
2022/11/27 03:59:31;;;;;;;14.75;3.15;;;5.80;99.90;;;;;;5069508;28;20033;-37
2022/11/27 04:01:57;;;;;;;13.48;3.17;;;5.70;99.90;;;;;;5066189;28;20044;-37
2022/11/27 04:04:22;;;;;;;8.80;2.70;;;5.80;99.90;;;;;;5068575;28;20043;-37
2022/11/27 04:06:48;;;;;;;9.88;2.97;;;5.70;99.90;;;;;;5065473;28;20505;-37
2022/11/27 04:09:13;;;;;;;10.73;3.00;;;5.80;99.90;;;;;;5069832;28;20094;-37
2022/11/27 04:11:39;;;;;;;10.73;2.85;;;5.80;99.90;;;;;;5070725;28;20041;-37
2022/11/27 04:14:05;;;;;;;11.48;2.97;;;5.80;99.90;;;;;;5067906;28;20040;-38
2022/11/27 04:16:31;;;;;;;7.28;2.42;;;5.80;99.90;;;;;;5062427;28;20428;-36
2022/11/27 04:18:56;;;;;;;7.38;2.30;;;5.80;99.90;;;;;;5065881;28;21587;-37
2022/11/27 04:21:22;;;;;;;7.03;1.85;;;5.80;99.90;;;;;;5068230;28;20059;-37
2022/11/27 04:23:48;;;;;;;9.50;2.60;;;5.80;99.90;;;;;;5065964;28;20127;-36
2022/11/27 04:26:13;;;;;;;8.68;2.47;;;5.80;99.90;;;;;;5066065;28;20127;-41
2022/11/27 04:28:39;;;;;;;8.05;2.63;;;5.80;99.90;;;;;;5068488;28;20033;-37
2022/11/27 04:31:05;;;;;;;9.27;2.45;;;5.80;99.90;;;;;;5056898;28;20052;-39
2022/11/27 04:33:30;;;;;;;8.13;2.40;;;5.80;99.90;;;;;;5065793;28;20045;-36
2022/11/27 04:35:56;;;;;;;7.95;1.90;;;5.80;99.90;;;;;;5067266;28;20496;-39
2022/11/27 04:38:22;;;;;;;9.50;2.20;;;5.80;99.90;;;;;;5068852;28;20082;-39
2022/11/27 04:40:50;;;;;;;7.32;2.45;;;5.80;99.90;;;;;;5066013;28;20040;-38
2022/11/27 04:43:15;;;;;;;9.10;2.60;;;5.80;99.90;;;;;;5059972;28;20044;-39
2022/11/27 04:45:42;;;;;;;7.78;2.17;;;5.80;99.90;;;;;;5055862;28;20028;-37
2022/11/27 04:48:08;;;;;;;9.00;2.67;;;5.80;99.90;;;;;;5060197;28;20040;-37
2022/11/27 04:50:33;;;;;;;11.07;3.17;;;5.80;99.90;;;;;;5061012;28;20032;-37
2022/11/27 04:52:59;;;;;;;6.65;2.42;;;5.80;99.90;;;;;;5065177;28;20032;-36
2022/11/27 04:55:25;;;;;;;8.60;2.53;;;5.80;99.90;;;;;;5058641;28;20406;-37
2022/11/27 04:57:50;;;;;;;8.50;2.05;;;5.80;99.90;;;;;;5065613;28;20401;-36
2022/11/27 05:00:16;;;;;;;9.23;2.13;;;5.80;99.90;;;;;;5066849;28;20086;-36
2022/11/27 05:02:42;;;;;;;5.55;2.08;;;5.80;99.90;;;;;;5057929;28;20052;-38
2022/11/27 05:05:08;;;;;;;4.47;1.85;;;5.80;99.90;;;;;;5061288;28;20044;-37
2022/11/27 05:07:33;;;;;;;8.35;2.28;;;5.80;99.90;;;;;;5057031;28;20087;-39
2022/11/27 05:09:59;;;;;;;9.48;2.47;;;5.80;99.90;;;;;;5059773;28;20086;-36
2022/11/27 05:12:25;;;;;;;7.25;2.58;;;5.80;99.90;;;;;;5067685;28;20059;-39
2022/11/27 05:14:50;;;;;;;7.22;2.30;;;5.80;99.90;;;;;;5068811;28;20139;-37
2022/11/27 05:17:16;;;;;;;11.25;2.50;;;5.80;99.90;;;;;;5063728;28;20512;-37
2022/11/27 05:19:42;;;;;;;11.18;2.30;;;5.80;99.90;;;;;;5060441;28;20082;-36
2022/11/27 05:22:07;;;;;;;8.23;2.30;;;5.70;99.90;;;;;;5062963;28;20547;-36
2022/11/27 05:24:33;;;;;;;6.82;2.13;;;5.80;99.90;;;;;;5064809;28;20047;-38
2022/11/27 05:26:59;;;;;;;8.40;2.22;;;5.70;99.90;;;;;;5061540;28;20458;-37
2022/11/27 05:29:25;;;;;;;8.95;2.08;;;5.70;99.90;;;;;;5059632;28;20041;-37
2022/11/27 05:31:51;;;;;;;10.20;2.97;;;5.70;99.90;;;;;;5066231;28;20044;-37
2022/11/27 05:34:16;;;;;;;6.35;2.25;;;5.80;99.90;;;;;;5069117;28;20052;-40
2022/11/27 05:36:42;;;;;;;9.30;2.55;;;5.80;99.90;;;;;;5063634;28;20058;-36
2022/11/27 05:39:09;;;;;;;9.07;2.50;;;5.80;99.90;;;;;;5073489;28;20040;-39
2022/11/27 05:41:37;;;;;;;7.35;2.22;;;5.80;99.90;;;;;;5057929;28;20033;-37
2022/11/27 05:44:03;;;;;;;12.35;2.13;;;5.80;99.90;;;;;;5061471;28;20762;-38
2022/11/27 05:46:29;;;;;;;6.55;2.20;;;5.80;99.90;;;;;;5064809;28;20037;-37
2022/11/27 05:48:55;;;;;;;10.20;2.25;;;5.80;99.90;;;;;;5064676;28;20501;-38
2022/11/27 05:51:20;;;;;;;6.40;1.83;;;5.80;99.90;;;;;;5067860;28;20086;-37
2022/11/27 05:53:46;;;;;;;4.60;1.88;;;5.80;99.90;;;;;;5069641;28;20490;-37
2022/11/27 05:56:15;;;;;;;5.80;2.03;;;5.80;99.90;;;;;;5064028;28;20037;-39
2022/11/27 05:58:43;;;;;;;6.85;2.35;;;5.80;99.90;;;;;;5060153;28;20496;-39
2022/11/27 06:01:10;;;;;;;10.48;2.75;;;5.80;99.90;;;;;;5065879;28;20489;-40
2022/11/27 06:03:37;;;;;;;8.00;2.35;;;5.80;99.90;;;;;;5068391;28;20130;-36
2022/11/27 06:06:15;;;;;;;8.07;2.08;;;5.80;99.90;;;;;;5063636;28;20041;-40
2022/11/27 06:08:42;;;;;;;9.15;2.15;;;5.80;99.90;;;;;;5067027;28;20091;-37
2022/11/27 06:11:10;;;;;;;10.50;2.58;;;5.80;99.90;;;;;;5069336;28;20486;-36
2022/11/27 06:13:36;;;;;;;10.27;2.03;;;5.80;99.90;;;;;;5064469;28;20037;-38
2022/11/27 06:16:11;;;;;;;12.65;2.47;;;5.90;99.90;;;;;;5069359;28;20044;-37
2022/11/27 06:18:37;;;;;;;5.57;1.70;;;5.80;99.90;;;;;;5066744;28;20051;-37
2022/11/27 06:21:08;;;;;;;8.93;1.88;;;5.80;99.90;;;;;;5072276;28;20052;-37
2022/11/27 06:23:34;;;;;;;4.05;1.63;;;5.80;99.90;;;;;;5066038;28;20063;-38
2022/11/27 06:26:10;;;;;;;9.68;2.28;;;5.80;99.90;;;;;;5069563;28;20490;-36
2022/11/27 06:28:36;;;;;;;5.90;2.22;;;5.90;99.90;;;;;;5069682;28;20051;-37
2022/11/27 06:31:10;;;;;;;9.38;2.13;;;5.90;99.90;;;;;;5061166;28;20509;-37
2022/11/27 06:33:36;;;;;;;7.45;2.30;;;5.90;99.90;;;;;;5069266;28;20059;-37
2022/11/27 06:36:03;;;;;;;9.88;2.88;;;6.00;99.90;;;;;;5068484;28;20040;-38
2022/11/27 06:38:31;;;;;;;5.55;2.10;;;6.00;99.90;;;;;;5079388;28;20037;-37
2022/11/27 06:41:02;;;;;;;6.75;2.08;;;5.90;99.90;;;;;;5064919;28;20506;-36
2022/11/27 06:43:28;;;;;;;7.88;1.90;;;5.90;99.90;;;;;;5064533;28;20087;-39
2022/11/27 06:45:58;;;;;;;5.43;2.10;;;5.90;99.90;;;;;;5070830;28;20080;-36
2022/11/27 06:48:24;;;;;;;6.63;1.92;;;5.90;99.90;;;;;;5069124;28;20037;-38
2022/11/27 06:50:50;;;;;;;7.75;2.05;;;5.90;99.90;;;;;;5065274;28;20094;-38
2022/11/27 06:53:16;;;;;;;6.20;2.38;;;6.00;99.90;;;;;;5062949;28;20037;-38
2022/11/27 06:55:42;;;;;;;6.22;2.53;;;5.90;99.90;;;;;;5062815;28;20040;-38
2022/11/27 06:58:07;;;;;;;8.95;2.72;;;5.90;99.90;;;;;;5071121;28;20067;-37
2022/11/27 07:00:33;;;;;;;5.22;2.75;;;5.90;99.90;;;;;;5060575;28;20155;-37
2022/11/27 07:02:59;;;;;;;7.00;2.42;;;6.00;99.90;;;;;;5065689;28;20047;-38
2022/11/27 07:05:24;;;;;;;9.27;2.40;;;6.00;99.90;;;;;;5066479;28;20362;-37
2022/11/27 07:07:50;;;;;;;5.50;2.15;;;6.00;99.90;;;;;;5062683;28;20066;-36
2022/11/27 07:10:16;;;;;;;6.63;2.03;;;6.00;99.90;;;;;;5064036;28;20064;-36
2022/11/27 07:12:41;;;;;;;8.98;2.42;;;6.00;99.90;;;;;;5058907;28;20397;-37
2022/11/27 07:15:08;;;;;;;7.57;2.30;;;6.00;99.90;;;;;;5065583;28;20045;-37
2022/11/27 07:17:33;;;;;;;5.50;2.45;;;6.00;99.90;;;;;;5059781;28;20033;-37
2022/11/27 07:19:59;;;;;;;4.90;3.03;;;6.00;99.90;;;;;;5063849;28;20559;-37
2022/11/27 07:22:24;;;;;;;8.73;2.47;;;6.00;99.90;;;;;;5062859;28;20527;-37
2022/11/27 07:24:50;;;;;;;9.82;2.47;;;6.00;99.90;;;;;;5067624;28;20509;-37
2022/11/27 07:27:16;;;;;;;4.20;1.65;;;6.00;99.90;;;;;;5063966;28;20094;-37
2022/11/27 07:29:41;;;;;;;4.95;1.80;;;6.00;99.90;;;;;;5062744;28;20094;-37
2022/11/27 07:32:07;;;;;;;8.75;2.47;;;6.10;99.90;;;;;;5064272;28;20037;-37
2022/11/27 07:34:33;;;;;;;7.95;2.65;;;6.10;99.90;;;;;;5068056;28;20127;-37
2022/11/27 07:36:58;;;;;;;8.45;2.63;;;6.00;99.90;;;;;;5062379;28;20049;-36
2022/11/27 07:39:24;;;;;;;8.02;2.60;;;6.00;99.90;;;;;;5063416;28;20076;-36
2022/11/27 07:41:50;;;;;;;6.70;2.30;;;6.10;99.90;;;;;;5067601;28;20123;-37
2022/11/27 07:44:16;;;;;;;6.15;2.10;;;6.10;99.90;;;;;;5067092;28;20126;-36
2022/11/27 07:46:42;;;;;;;8.57;2.65;;;6.10;99.90;;;;;;5060030;28;20044;-37
2022/11/27 07:49:08;;;;;;;6.63;2.20;;;6.10;99.90;;;;;;5059311;28;20387;-38
2022/11/27 07:51:33;;;;;;;7.50;2.63;;;6.10;99.90;;;;;;5062999;28;20517;-40
2022/11/27 07:53:59;;;;;;;6.68;2.45;;;6.10;99.90;;;;;;5063923;28;20040;-40
2022/11/27 07:56:26;;;;;;;5.93;2.05;;;6.10;99.90;;;;;;5062064;28;20040;-38
2022/11/27 07:58:51;;;;;;;7.75;2.25;;;6.10;99.90;;;;;;5064182;28;20048;-40
2022/11/27 08:01:18;;;;;;;7.10;2.63;;;6.10;99.90;;;;;;5060221;28;20040;-38
2022/11/27 08:03:44;;;;;;;10.05;2.60;;;6.20;99.90;;;;;;5057541;28;20036;-38
2022/11/27 08:06:22;;;;;;;9.95;2.70;;;6.20;99.90;;;;;;5065353;28;20409;-40
2022/11/27 08:08:48;;;;;;;9.38;2.90;;;6.20;99.90;;;;;;5060629;28;20049;-38
2022/11/27 08:11:23;;;;;;;8.23;3.05;;;6.20;99.90;;;;;;5061977;28;20032;-39
2022/11/27 08:13:49;;;;;;;9.48;2.92;;;6.20;99.90;;;;;;5061646;28;20058;-37
2022/11/27 08:16:15;;;;;;;7.22;2.50;;;6.20;99.90;;;;;;5060045;28;20044;-40
2022/11/27 08:18:41;;;;;;;10.93;2.45;;;6.20;99.90;;;;;;5052966;28;20053;-38
2022/11/27 08:21:07;;;;;;;9.50;3.00;;;6.30;99.90;;;;;;5066611;28;20045;-37
2022/11/27 08:23:33;;;;;;;7.78;2.90;;;6.30;99.90;;;;;;5060223;28;20565;-37
2022/11/27 08:25:58;;;;;;;9.85;2.88;;;6.30;99.90;;;;;;5068499;28;20437;-37
2022/11/27 08:28:24;;;;;;;10.00;2.10;;;6.30;99.90;;;;;;5061983;28;20031;-36
2022/11/27 08:30:57;;;;;;;8.70;2.70;;;6.30;99.90;;;;;;5062363;28;20052;-38
2022/11/27 08:33:23;;;;;;;8.82;2.55;;;6.30;99.90;;;;;;5060755;28;20049;-37
2022/11/27 08:35:48;;;;;;;6.38;2.50;;;6.30;99.90;;;;;;5060606;28;20060;-38
2022/11/27 08:38:14;;;;;;;9.48;3.10;;;6.30;99.90;;;;;;5064388;28;20128;-37
2022/11/27 08:40:40;;;;;;;12.57;3.30;;;6.30;99.90;;;;;;5063770;28;20044;-42
2022/11/27 08:43:05;;;;;;;7.25;2.72;;;6.40;99.90;;;;;;5064314;28;20040;-38
2022/11/27 08:45:31;;;;;;;9.23;2.70;;;6.40;99.90;;;;;;5066705;28;20743;-38
2022/11/27 08:47:57;;;;;;;9.65;3.28;;;6.40;99.90;;;;;;5069649;28;20052;-38
2022/11/27 08:50:24;;;;;;;6.47;3.03;;;6.30;99.90;;;;;;5068157;28;20376;-38
2022/11/27 08:52:49;;;;;;;11.13;3.20;;;6.30;99.90;;;;;;5057874;28;20105;-37
2022/11/27 08:55:15;;;;;;;7.13;2.75;;;6.30;99.90;;;;;;5058287;28;20033;-37
2022/11/27 08:57:41;;;;;;;9.68;3.22;;;6.30;99.90;;;;;;5058443;28;20097;-38
2022/11/27 09:00:07;;;;;;;8.18;3.05;;;6.30;99.90;;;;;;5061313;28;20044;-38
2022/11/27 09:02:33;;;;;;;10.30;2.95;;;6.30;99.90;;;;;;5058727;28;20486;-37
2022/11/27 09:05:01;;;;;;;12.20;3.40;;;6.30;99.90;;;;;;5057527;28;20032;-38
2022/11/27 09:07:27;;;;;;;9.30;3.17;;;6.30;99.90;;;;;;5062920;28;20513;-37
2022/11/27 09:09:53;;;;;;;8.65;3.38;;;6.30;99.90;;;;;;5065507;28;20040;-37
2022/11/27 09:12:19;;;;;;;12.63;2.85;;;6.30;99.90;;;;;;5053519;28;20044;-37
2022/11/27 09:14:44;;;;;;;10.65;2.95;;;6.30;99.90;;;;;;5054564;28;20702;-38
2022/11/27 09:17:10;;;;;;;9.02;2.80;;;6.30;99.90;;;;;;5055395;28;20040;-37
2022/11/27 09:19:36;;;;;;;7.75;3.10;;;6.30;99.90;;;;;;5049934;28;20056;-38
2022/11/27 09:22:01;;;;;;;10.57;2.97;;;6.30;99.90;;;;;;5051898;28;20044;-37
2022/11/27 09:24:27;;;;;;;10.50;3.30;;;6.30;99.90;;;;;;5052149;28;20563;-38
2022/11/27 09:26:53;;;;;;;10.35;3.50;;;6.30;99.90;;;;;;5054655;28;20041;-37
2022/11/27 09:29:18;;;;;;;7.47;3.28;;;6.30;99.90;;;;;;5049080;28;20033;-38
2022/11/27 09:31:44;;;;;;;11.45;3.70;;;6.30;99.90;;;;;;5054646;28;20094;-38
2022/11/27 09:34:10;;;;;;;11.32;3.28;;;6.30;99.90;;;;;;5051015;28;20086;-38
2022/11/27 09:36:36;;;;;;;12.20;3.72;;;6.30;99.90;;;;;;5057691;28;20458;-38
2022/11/27 09:39:02;;;;;;;8.00;3.08;;;6.30;99.90;;;;;;5054058;28;20037;-40
2022/11/27 09:41:51;;;;;;;9.63;3.70;;;6.30;99.90;;;;;;5056912;28;20040;-37
2022/11/27 09:44:38;;;;;;;11.75;3.75;;;6.30;99.90;;;;;;5062656;28;20037;-38
2022/11/27 09:47:16;;;;;;;11.02;3.35;;;6.30;99.90;;;;;;5058899;28;20047;-37
2022/11/27 09:49:52;;;;;;;8.75;3.40;;;6.30;99.90;;;;;;5058169;28;20037;-37
2022/11/27 09:52:37;;;;;;;6.10;2.92;;;6.30;99.90;;;;;;5070503;28;20111;-37
2022/11/27 09:55:19;;;;;;;9.57;3.50;;;6.30;99.90;;;;;;5055793;28;20041;-38
2022/11/27 09:57:54;;;;;;;9.75;3.08;;;6.30;99.90;;;;;;5057673;28;20033;-38
2022/11/27 10:00:20;;;;;;;8.55;3.40;;;6.40;99.90;;;;;;5053428;28;20040;-38
2022/11/27 10:02:47;;;;;;;6.47;2.83;;;6.30;99.90;;;;;;5055069;28;20397;-37
2022/11/27 10:05:33;;;;;;;10.50;3.40;;;6.40;99.90;;;;;;5052545;28;20041;-37
2022/11/27 10:08:27;;;;;;;11.63;4.15;;;6.40;99.90;;;;;;5060714;28;20461;-38
2022/11/27 10:11:08;;;;;;;9.60;4.13;;;6.40;99.90;;;;;;5051946;28;20106;-37
2022/11/27 10:13:58;;;;;;;15.50;4.28;;;6.40;99.90;;;;;;5062584;28;20068;-38
2022/11/27 10:16:33;;;;;;;11.23;3.53;;;6.30;99.90;;;;;;5053102;28;20040;-38
2022/11/27 10:19:19;;;;;;;9.20;3.90;;;6.40;99.90;;;;;;5056103;28;20036;-37
2022/11/27 10:21:48;;;;;;;11.40;4.00;;;6.40;99.90;;;;;;5059416;28;20447;-40
2022/11/27 10:24:22;;;;;;;13.52;4.05;;;6.40;99.90;;;;;;5058585;28;20548;-40
2022/11/27 10:26:51;;;;;;;9.55;3.50;;;6.40;99.90;;;;;;5061290;28;20040;-38
2022/11/27 10:29:17;;;;;;;12.23;3.28;;;6.50;99.90;;;;;;5060147;28;20032;-37
2022/11/27 10:31:49;;;;;;;8.13;3.65;;;6.50;99.90;;;;;;5057905;28;20375;-37
2022/11/27 10:34:30;;;;;;;11.02;3.50;;;6.50;99.90;;;;;;5059600;28;20091;-37
2022/11/27 10:36:58;;;;;;;10.15;3.60;;;6.50;99.90;;;;;;5057813;28;20083;-37
2022/11/27 10:39:40;;;;;;;10.02;3.65;;;6.50;99.90;;;;;;5058203;28;20105;-38
2022/11/27 10:42:16;;;;;;;9.32;3.55;;;6.50;99.90;;;;;;5059819;28;20052;-40
2022/11/27 10:44:57;;;;;;;8.50;3.08;;;6.50;99.90;;;;;;5055302;28;20091;-39
2022/11/27 10:47:26;;;;;;;9.10;3.40;;;6.60;99.90;;;;;;5063292;28;20041;-38
2022/11/27 10:49:52;;;;;;;12.77;4.00;;;6.60;99.90;;;;;;5059329;28;20120;-38
2022/11/27 10:52:19;;;;;;;10.88;3.72;;;6.60;99.90;;;;;;5055898;28;20047;-37
2022/11/27 10:54:59;;;;;;;9.38;3.38;;;6.60;99.90;;;;;;5058198;28;20107;-37
2022/11/27 10:57:59;;;;;;;8.27;3.50;;;6.60;99.90;;;;;;5063108;28;20037;-38
2022/11/27 11:00:26;;;;;;;10.13;3.28;;;6.60;99.90;;;;;;5061869;28;20040;-39
2022/11/27 11:03:04;;;;;;;8.32;3.40;;;6.60;99.90;;;;;;5063412;28;20070;-37
2022/11/27 11:05:31;;;;;;;8.25;3.05;;;6.60;99.90;;;;;;5065509;28;20151;-37
2022/11/27 11:08:13;;;;;;;9.68;3.83;;;6.60;99.90;;;;;;5058363;28;20495;-37
2022/11/27 11:10:53;;;;;;;11.07;3.70;;;6.70;99.90;;;;;;5058506;28;20037;-38
2022/11/27 11:13:28;;;;;;;8.90;3.95;;;6.70;99.90;;;;;;5062765;28;20097;-37
2022/11/27 11:16:01;;;;;;;9.85;3.38;;;6.70;99.90;;;;;;5065087;28;20033;-37
2022/11/27 11:18:31;;;;;;;8.02;3.65;;;6.70;99.90;;;;;;5057757;28;20055;-38
2022/11/27 11:21:03;;;;;;;9.18;4.38;;;6.60;99.90;;;;;;5061380;28;20059;-37
2022/11/27 11:23:39;;;;;;;9.93;3.92;;;6.70;99.90;;;;;;5059058;28;20043;-37
2022/11/27 11:26:24;;;;;;;13.68;5.18;;;6.70;99.90;;;;;;5061372;28;20479;-38
2022/11/27 11:28:53;;;;;;;9.70;3.60;;;6.70;99.90;;;;;;5059421;28;20044;-39
2022/11/27 11:31:26;;;;;;;7.80;3.47;;;6.70;99.90;;;;;;5058660;28;20037;-38
2022/11/27 11:33:56;;;;;;;8.95;3.50;;;6.70;99.90;;;;;;5061072;28;20135;-38
2022/11/27 11:36:22;;;;;;;10.25;3.80;;;6.70;99.90;;;;;;5057922;28;20509;-38
2022/11/27 11:38:49;;;;;;;11.93;4.75;;;6.70;99.90;;;;;;5053900;28;20102;-38
2022/11/27 11:41:16;;;;;;;8.20;3.60;;;6.70;99.90;;;;;;5058261;28;20456;-37
2022/11/27 11:44:01;;;;;;;8.88;3.38;;;6.70;99.90;;;;;;5056044;28;20041;-38
2022/11/27 11:46:30;;;;;;;7.82;3.88;;;6.70;99.90;;;;;;5060620;28;21011;-38
2022/11/27 11:49:00;;;;;;;11.05;3.95;;;6.70;99.90;;;;;;5061806;28;20032;-37
2022/11/27 11:51:54;;;;;;;11.70;3.65;;;6.70;99.90;;;;;;5051523;28;20041;-37
2022/11/27 11:54:28;;;;;;;6.80;3.50;;;6.70;99.90;;;;;;5056445;28;20502;-38
2022/11/27 11:57:00;;;;;;;12.73;3.97;;;6.70;99.90;;;;;;5051447;28;20041;-44
2022/11/27 12:00:06;;;;;;;8.25;3.30;;;6.70;99.90;;;;;;5054169;28;20041;-39
2022/11/27 12:02:41;;;;;;;8.48;3.17;;;6.70;99.90;;;;;;5046415;28;20528;-39
2022/11/27 12:05:26;;;;;;;11.07;4.07;;;6.80;99.90;;;;;;5053459;28;20045;-38
2022/11/27 12:07:59;;;;;;;9.93;3.88;;;6.80;99.90;;;;;;5054783;28;20053;-39
2022/11/27 12:10:37;;;;;;;7.10;3.13;;;6.80;99.90;;;;;;5056072;28;20589;-37
2022/11/27 12:13:30;;;;;;;11.13;3.80;;;6.80;99.90;;;;;;5050934;28;20550;-38
2022/11/27 12:16:08;;;;;;;9.88;3.85;;;6.80;99.90;;;;;;5057829;28;20081;-38
2022/11/27 12:18:58;;;;;;;8.05;3.15;;;6.80;99.90;;;;;;5050718;28;20060;-38
2022/11/27 12:21:43;;;;;;;8.65;3.55;;;6.90;99.90;;;;;;5052399;28;20032;-38
2022/11/27 12:24:34;;;;;;;8.52;3.80;;;6.90;99.90;;;;;;5068968;28;20044;-38
2022/11/27 12:27:34;;;;;;;10.23;3.40;;;6.90;99.90;;;;;;5060958;28;20777;-39
2022/11/27 12:30:19;;;;;;;7.07;3.10;;;6.90;99.90;;;;;;5049321;28;20087;-39
2022/11/27 12:33:04;;;;;;;9.48;3.63;;;6.90;99.90;;;;;;5058593;28;20051;-40
2022/11/27 12:36:02;;;;;;;11.05;3.58;;;6.90;99.90;;;;;;5055622;28;20057;-38
2022/11/27 12:38:56;;;;;;;9.93;3.67;;;6.90;99.90;;;;;;5051229;28;20037;-38
2022/11/27 12:41:31;;;;;;;6.65;2.85;;;6.90;99.90;;;;;;5059028;28;20036;-39
2022/11/27 12:43:59;;;;;;;11.32;3.75;;;6.90;99.90;;;;;;5055245;28;20041;-38
2022/11/27 12:46:50;;;;;;;8.02;3.70;;;6.90;99.90;;;;;;5063042;28;20085;-38
2022/11/27 12:49:22;;;;;;;9.18;4.03;;;6.90;99.90;;;;;;5059752;28;20536;-42
2022/11/27 12:52:00;;;;;;;8.90;3.60;;;6.90;99.90;;;;;;5062912;28;20033;-38
2022/11/27 12:54:51;;;;;;;8.45;3.38;;;6.90;99.90;;;;;;5068219;28;20112;-38
2022/11/27 12:57:22;;;;;;;8.82;4.03;;;6.90;99.90;;;;;;5037218;28;20053;-38
2022/11/27 12:59:57;;;;;;;8.65;3.80;;;6.90;99.90;;;;;;5066718;28;20040;-38
2022/11/27 13:02:41;;;;;;;8.88;3.53;;;6.90;99.90;;;;;;5054350;28;20033;-38
2022/11/27 13:05:16;;;;;;;8.85;4.15;;;6.90;99.90;;;;;;5055401;28;20047;-40
2022/11/27 13:07:55;;;;;;;8.70;3.40;;;6.90;99.90;;;;;;5056833;28;20127;-38
2022/11/27 13:10:39;;;;;;;8.45;3.85;;;6.90;99.90;;;;;;5056687;28;20583;-38
2022/11/27 13:13:36;;;;;;;7.75;4.10;;;6.90;99.90;;;;;;5061786;28;20489;-38